Time;durP1;ratioP1;P1;durP2;ratioP2;P2;SDS_P1;SDS_P2;PMS_P1;PMS_P2;Temp;Humidity;BMP_temperature;BMP_pressure;BME280_temperature;BME280_humidity;BME280_pressure;Samples;Min_cycle;Max_cycle;Signal;HPM_P1;HPM_P2
2022/10/12 00:01:28;;;;;;;0.00;0.00;;;;;;;;;;5102694;28;20024;-78
2022/10/12 00:03:55;;;;;;;0.00;0.00;;;;;;;;;;5099392;28;20078;-77
2022/10/12 00:06:23;;;;;;;0.00;0.00;;;;;;;;;;5104119;28;20024;-77
2022/10/12 00:08:50;;;;;;;0.45;0.45;;;;;;;;;;5101224;28;20117;-77
2022/10/12 00:11:26;;;;;;;0.20;0.20;;;;;;;;;;5109320;28;20021;-77
2022/10/12 00:13:53;;;;;;;0.00;0.00;;;;;;;;;;5105273;28;20089;-77
2022/10/12 00:16:20;;;;;;;0.00;0.00;;;;;;;;;;5114027;28;20030;-77
2022/10/12 00:18:50;;;;;;;0.85;0.85;;;;;;;;;;5116117;28;20023;-78
2022/10/12 00:21:17;;;;;;;0.00;0.00;;;;;;;;;;5114914;28;20477;-78
2022/10/12 00:23:43;;;;;;;1.35;1.35;;;;;;;;;;5100504;28;20025;-78
2022/10/12 00:26:11;;;;;;;0.00;0.00;;;;;;;;;;5100998;28;20099;-78
2022/10/12 00:28:37;;;;;;;0.00;0.00;;;;;;;;;;5112640;28;20024;-78
2022/10/12 00:31:12;;;;;;;0.00;0.00;;;;;;;;;;5131685;27;20029;-78
2022/10/12 00:33:38;;;;;;;0.00;0.00;;;;;;;;;;5131564;27;20387;-78
2022/10/12 00:36:18;;;;;;;0.00;0.00;;;;;;;;;;5134532;27;20026;-79
2022/10/12 00:38:44;;;;;;;0.00;0.00;;;;;;;;;;5115926;27;20160;-78
2022/10/12 00:41:11;;;;;;;0.00;0.00;;;;;;;;;;5097993;28;20032;-78
2022/10/12 00:43:40;;;;;;;0.10;0.10;;;;;;;;;;5085278;28;20758;-78
2022/10/12 00:46:25;;;;;;;0.40;0.40;;;;;;;;;;5074618;28;20028;-79
2022/10/12 00:48:57;;;;;;;0.00;0.00;;;;;;;;;;5090870;28;20024;-79
2022/10/12 00:51:27;;;;;;;0.52;0.52;;;;;;;;;;5094522;28;20566;-81
2022/10/12 00:53:56;;;;;;;0.00;0.00;;;;;;;;;;5076820;28;20028;-78
2022/10/12 00:56:24;;;;;;;0.00;0.00;;;;;;;;;;5086796;28;20024;-78
2022/10/12 00:58:51;;;;;;;0.00;0.00;;;;;;;;;;5065830;28;20029;-80
2022/10/12 01:01:17;;;;;;;0.00;0.00;;;;;;;;;;5062289;28;20024;-80
2022/10/12 01:03:44;;;;;;;0.00;0.00;;;;;;;;;;5080578;28;20028;-80
2022/10/12 01:06:10;;;;;;;0.80;0.80;;;;;;;;;;5080656;28;20093;-79
2022/10/12 01:08:37;;;;;;;2.90;2.72;;;;;;;;;;5068994;28;20031;-80
2022/10/12 01:11:04;;;;;;;0.00;0.00;;;;;;;;;;5088496;28;20020;-79
2022/10/12 01:13:31;;;;;;;0.00;0.00;;;;;;;;;;5089545;28;20028;-81
2022/10/12 01:16:03;;;;;;;0.00;0.00;;;;;;;;;;5085500;28;20040;-79
2022/10/12 01:18:52;;;;;;;0.00;0.00;;;;;;;;;;5081074;28;20039;-80
2022/10/12 01:21:20;;;;;;;0.00;0.00;;;;;;;;;;5072640;28;20095;-81
2022/10/12 01:24:07;;;;;;;0.00;0.00;;;;;;;;;;5074084;28;20028;-80
2022/10/12 01:26:43;;;;;;;0.10;0.10;;;;;;;;;;5067350;28;20035;-80
2022/10/12 01:29:28;;;;;;;0.22;0.22;;;;;;;;;;5072742;28;20035;-80
2022/10/12 01:32:05;;;;;;;55.90;16.40;;;;;;;;;;5054881;28;20123;-80
2022/10/12 01:34:34;;;;;;;0.00;0.00;;;;;;;;;;5080938;28;20025;-79
2022/10/12 01:37:00;;;;;;;0.05;0.05;;;;;;;;;;5089594;28;20524;-79
2022/10/12 01:39:43;;;;;;;0.00;0.00;;;;;;;;;;5058995;28;20036;-80
2022/10/12 01:42:18;;;;;;;1.65;1.58;;;;;;;;;;5092623;28;20040;-79
2022/10/12 01:44:45;;;;;;;0.00;0.00;;;;;;;;;;5097783;28;20038;-79
2022/10/12 01:47:11;;;;;;;0.00;0.00;;;;;;;;;;5083335;28;20023;-79
2022/10/12 01:49:37;;;;;;;0.00;0.00;;;;;;;;;;5101925;28;20023;-79
2022/10/12 01:52:23;;;;;;;4.45;4.18;;;;;;;;;;5082147;28;20046;-79
2022/10/12 01:55:04;;;;;;;0.00;0.00;;;;;;;;;;5089648;28;20486;-80
2022/10/12 01:57:31;;;;;;;0.10;0.10;;;;;;;;;;5101455;28;20025;-78
2022/10/12 02:00:09;;;;;;;0.00;0.00;;;;;;;;;;5101737;28;20023;-79
2022/10/12 02:02:58;;;;;;;0.00;0.00;;;;;;;;;;5092441;28;20377;-79
2022/10/12 02:05:46;;;;;;;0.68;0.47;;;;;;;;;;5081998;28;20131;-78
2022/10/12 02:08:18;;;;;;;3.33;0.52;;;;;;;;;;5095260;28;20107;-79
2022/10/12 02:10:49;;;;;;;1.42;1.08;;;;;;;;;;5107312;28;20496;-80
2022/10/12 02:13:16;;;;;;;1.30;1.30;;;;;;;;;;5108703;28;20090;-79
2022/10/12 02:15:43;;;;;;;1.90;0.80;;;;;;;;;;5106407;28;20035;-77
2022/10/12 02:18:12;;;;;;;7.95;1.98;;;;;;;;;;5095387;28;20488;-77
2022/10/12 02:20:40;;;;;;;1.75;1.65;;;;;;;;;;5093202;28;20057;-77
2022/10/12 02:23:10;;;;;;;0.63;0.63;;;;;;;;;;5111836;28;20016;-78
2022/10/12 02:25:36;;;;;;;0.63;0.52;;;;;;;;;;5134142;28;20043;-76
2022/10/12 02:28:08;;;;;;;2.28;1.90;;;;;;;;;;5113968;28;20020;-74
2022/10/12 02:30:42;;;;;;;7.22;3.42;;;;;;;;;;5109644;28;20031;-74
2022/10/12 02:33:13;;;;;;;2.90;2.28;;;;;;;;;;5104316;27;20032;-73
2022/10/12 02:35:52;;;;;;;4.07;1.88;;;;;;;;;;5093794;28;20500;-73
2022/10/12 02:38:19;;;;;;;0.20;0.20;;;;;;;;;;5086422;28;20474;-73
2022/10/12 02:41:04;;;;;;;0.88;0.75;;;;;;;;;;5086424;28;20031;-74
2022/10/12 02:43:34;;;;;;;0.55;0.55;;;;;;;;;;5103558;28;20024;-72
2022/10/12 02:46:01;;;;;;;4.72;1.25;;;;;;;;;;5106375;28;20023;-74
2022/10/12 02:48:28;;;;;;;0.00;0.00;;;;;;;;;;5092405;28;20028;-74
2022/10/12 02:50:56;;;;;;;0.47;0.47;;;;;;;;;;5102961;28;20092;-74
2022/10/12 02:53:23;;;;;;;0.20;0.20;;;;;;;;;;5088495;28;20027;-73
2022/10/12 02:55:51;;;;;;;0.20;0.20;;;;;;;;;;5093947;28;20028;-74
2022/10/12 02:58:18;;;;;;;0.10;0.10;;;;;;;;;;5104561;28;20172;-73
2022/10/12 03:00:44;;;;;;;0.40;0.40;;;;;;;;;;5103345;28;20090;-74
2022/10/12 03:03:11;;;;;;;0.00;0.00;;;;;;;;;;5082256;28;20043;-73
2022/10/12 03:05:37;;;;;;;0.00;0.00;;;;;;;;;;5089001;28;20065;-73
2022/10/12 03:08:04;;;;;;;3.35;3.20;;;;;;;;;;5100538;27;20131;-73
2022/10/12 03:10:30;;;;;;;0.00;0.00;;;;;;;;;;5082194;28;21786;-71
2022/10/12 03:12:57;;;;;;;0.35;0.35;;;;;;;;;;5100215;27;20389;-74
2022/10/12 03:15:23;;;;;;;0.13;0.13;;;;;;;;;;5102082;28;20167;-73
2022/10/12 03:17:50;;;;;;;0.10;0.10;;;;;;;;;;5083122;28;20024;-75
2022/10/12 03:20:16;;;;;;;21.05;8.88;;;;;;;;;;5103782;28;20845;-74
2022/10/12 03:22:43;;;;;;;0.30;0.30;;;;;;;;;;5091821;28;20031;-73
2022/10/12 03:25:09;;;;;;;1.80;1.42;;;;;;;;;;5089465;28;20039;-74
2022/10/12 03:27:35;;;;;;;0.00;0.00;;;;;;;;;;5099964;28;20023;-73
2022/10/12 03:30:04;;;;;;;2.40;2.20;;;;;;;;;;5092718;28;20495;-75
2022/10/12 03:32:31;;;;;;;0.13;0.13;;;;;;;;;;5105033;27;20059;-74
2022/10/12 03:34:57;;;;;;;7.57;6.05;;;;;;;;;;5105661;27;20023;-73
2022/10/12 03:37:23;;;;;;;1.70;0.38;;;;;;;;;;5103606;27;20116;-74
2022/10/12 03:39:50;;;;;;;11.85;3.08;;;;;;;;;;5104712;28;20094;-74
2022/10/12 03:42:16;;;;;;;8.30;4.15;;;;;;;;;;5101887;28;20043;-75
2022/10/12 03:44:42;;;;;;;4.13;3.85;;;;;;;;;;5099233;28;20110;-73
2022/10/12 03:47:11;;;;;;;0.43;0.35;;;;;;;;;;5093511;28;20106;-73
2022/10/12 03:49:38;;;;;;;15.23;2.20;;;;;;;;;;5086030;28;20031;-73
2022/10/12 03:52:04;;;;;;;6.10;4.40;;;;;;;;;;5103348;28;20024;-73
2022/10/12 03:54:30;;;;;;;1.38;1.17;;;;;;;;;;5104505;28;20043;-74
2022/10/12 03:56:57;;;;;;;1.95;1.70;;;;;;;;;;5117527;28;20054;-74
2022/10/12 03:59:23;;;;;;;0.00;0.00;;;;;;;;;;5085837;28;20020;-74
2022/10/12 04:01:49;;;;;;;2.92;1.95;;;;;;;;;;5096339;27;20024;-74
2022/10/12 04:04:16;;;;;;;0.00;0.00;;;;;;;;;;5098784;28;20024;-74
2022/10/12 04:06:42;;;;;;;0.43;0.40;;;;;;;;;;5099804;27;20123;-73
2022/10/12 04:09:08;;;;;;;1.17;1.08;;;;;;;;;;5106587;27;20031;-75
2022/10/12 04:11:35;;;;;;;0.93;0.90;;;;;;;;;;5102344;28;20083;-75
2022/10/12 04:14:01;;;;;;;4.05;3.65;;;;;;;;;;5086650;28;20027;-75
2022/10/12 04:16:27;;;;;;;0.30;0.30;;;;;;;;;;5086889;28;20066;-75
2022/10/12 04:18:54;;;;;;;0.00;0.00;;;;;;;;;;5105405;28;20092;-75
2022/10/12 04:21:24;;;;;;;0.52;0.45;;;;;;;;;;5096052;28;20047;-73
2022/10/12 04:23:51;;;;;;;0.80;0.68;;;;;;;;;;5104734;28;20366;-76
2022/10/12 04:26:17;;;;;;;1.23;1.23;;;;;;;;;;5082858;28;20407;-76
2022/10/12 04:28:43;;;;;;;2.10;1.77;;;;;;;;;;5084366;28;20144;-75
2022/10/12 04:31:10;;;;;;;0.63;0.63;;;;;;;;;;5100359;28;20059;-74
2022/10/12 04:33:36;;;;;;;9.10;4.10;;;;;;;;;;5109341;27;20476;-74
2022/10/12 04:36:02;;;;;;;2.13;1.92;;;;;;;;;;5083216;28;20243;-73
2022/10/12 04:38:29;;;;;;;0.65;0.40;;;;;;;;;;5079689;28;20027;-75
2022/10/12 04:40:58;;;;;;;3.00;0.47;;;;;;;;;;5087346;28;20016;-75
2022/10/12 04:43:24;;;;;;;4.30;1.85;;;;;;;;;;5106154;28;20034;-74
2022/10/12 04:45:58;;;;;;;11.95;2.97;;;;;;;;;;5086537;28;20028;-74
2022/10/12 04:48:25;;;;;;;0.75;0.75;;;;;;;;;;5108273;27;20024;-74
2022/10/12 04:50:52;;;;;;;0.73;0.68;;;;;;;;;;5106981;28;20061;-74
2022/10/12 04:53:21;;;;;;;0.00;0.00;;;;;;;;;;5089506;27;20478;-74
2022/10/12 04:55:48;;;;;;;0.50;0.45;;;;;;;;;;5084943;27;20046;-74
2022/10/12 04:58:17;;;;;;;3.88;1.67;;;;;;;;;;5106026;27;20024;-75
2022/10/12 05:00:43;;;;;;;0.00;0.00;;;;;;;;;;5107098;28;20152;-74
2022/10/12 05:03:10;;;;;;;0.03;0.03;;;;;;;;;;5113082;28;20465;-73
2022/10/12 05:05:38;;;;;;;0.00;0.00;;;;;;;;;;5096777;28;20032;-74
2022/10/12 05:08:05;;;;;;;0.63;0.63;;;;;;;;;;5084032;28;20019;-76
2022/10/12 05:10:34;;;;;;;7.03;1.15;;;;;;;;;;5104564;28;20024;-75
2022/10/12 05:13:01;;;;;;;0.47;0.47;;;;;;;;;;5103622;28;20043;-74
2022/10/12 05:15:27;;;;;;;0.15;0.15;;;;;;;;;;5077109;28;20032;-74
2022/10/12 05:17:57;;;;;;;3.10;2.35;;;;;;;;;;5098456;28;20058;-73
2022/10/12 05:20:23;;;;;;;7.78;2.08;;;;;;;;;;5099117;28;20031;-73
2022/10/12 05:22:49;;;;;;;1.35;1.27;;;;;;;;;;5086791;28;20024;-75
2022/10/12 05:25:16;;;;;;;1.55;1.45;;;;;;;;;;5103255;28;20382;-74
2022/10/12 05:27:45;;;;;;;0.90;0.90;;;;;;;;;;5087315;28;20038;-75
2022/10/12 05:30:14;;;;;;;0.43;0.43;;;;;;;;;;5090337;28;20024;-74
2022/10/12 05:32:43;;;;;;;1.23;1.13;;;;;;;;;;5081036;28;20047;-74
2022/10/12 05:35:10;;;;;;;8.93;1.45;;;;;;;;;;5094473;28;20027;-75
2022/10/12 05:37:36;;;;;;;3.45;3.20;;;;;;;;;;5091409;28;20021;-74
2022/10/12 05:40:03;;;;;;;0.75;0.75;;;;;;;;;;5091195;28;20560;-74
2022/10/12 05:42:29;;;;;;;3.67;3.50;;;;;;;;;;5083516;28;20461;-73
2022/10/12 05:44:56;;;;;;;7.75;7.13;;;;;;;;;;5064670;28;20032;-74
2022/10/12 05:47:22;;;;;;;1.25;1.25;;;;;;;;;;5088847;28;20032;-73
2022/10/12 05:49:48;;;;;;;0.00;0.00;;;;;;;;;;5088230;28;20019;-73
2022/10/12 05:52:15;;;;;;;0.28;0.28;;;;;;;;;;5105577;28;20040;-73
2022/10/12 05:54:41;;;;;;;2.97;1.63;;;;;;;;;;5084173;28;20392;-74
2022/10/12 05:57:07;;;;;;;7.55;6.85;;;;;;;;;;5086948;28;20032;-74
2022/10/12 05:59:34;;;;;;;0.32;0.28;;;;;;;;;;5084929;28;20447;-74
2022/10/12 06:02:00;;;;;;;0.85;0.85;;;;;;;;;;5106506;27;20024;-74
2022/10/12 06:04:26;;;;;;;0.00;0.00;;;;;;;;;;5110161;27;20031;-74
2022/10/12 06:06:53;;;;;;;1.02;0.80;;;;;;;;;;5127617;27;20004;-75
2022/10/12 06:09:19;;;;;;;1.25;1.20;;;;;;;;;;5110594;27;20032;-75
2022/10/12 06:11:45;;;;;;;4.72;2.83;;;;;;;;;;5089796;28;20026;-74
2022/10/12 06:14:12;;;;;;;26.45;24.00;;;;;;;;;;5105866;28;20420;-73
2022/10/12 06:16:38;;;;;;;0.75;0.30;;;;;;;;;;5082430;28;20110;-72
2022/10/12 06:19:08;;;;;;;0.00;0.00;;;;;;;;;;5108996;27;20047;-73
2022/10/12 06:21:34;;;;;;;0.47;0.47;;;;;;;;;;5109643;28;20103;-73
2022/10/12 06:24:01;;;;;;;0.00;0.00;;;;;;;;;;5104759;28;20474;-74
2022/10/12 06:26:27;;;;;;;1.27;1.08;;;;;;;;;;5100438;27;20027;-73
2022/10/12 06:28:54;;;;;;;2.17;1.65;;;;;;;;;;5082862;28;20016;-72
2022/10/12 06:31:20;;;;;;;0.00;0.00;;;;;;;;;;5088152;28;20020;-74
2022/10/12 06:33:49;;;;;;;0.00;0.00;;;;;;;;;;5106261;27;20019;-75
2022/10/12 06:36:24;;;;;;;7.43;2.47;;;;;;;;;;5104166;27;20114;-74
2022/10/12 06:38:53;;;;;;;1.08;1.08;;;;;;;;;;5104003;28;20031;-73
2022/10/12 06:41:19;;;;;;;0.00;0.00;;;;;;;;;;5086299;28;20040;-73
2022/10/12 06:43:45;;;;;;;0.88;0.88;;;;;;;;;;5105377;28;20033;-73
2022/10/12 06:46:12;;;;;;;1.88;1.10;;;;;;;;;;5101616;27;20106;-72
2022/10/12 06:48:38;;;;;;;9.85;1.17;;;;;;;;;;5097391;27;20063;-73
2022/10/12 06:51:05;;;;;;;0.00;0.00;;;;;;;;;;5098668;27;20103;-75
2022/10/12 06:53:31;;;;;;;0.75;0.75;;;;;;;;;;5098401;28;20039;-73
2022/10/12 06:55:58;;;;;;;0.17;0.15;;;;;;;;;;5100184;28;20060;-74
2022/10/12 06:58:24;;;;;;;0.75;0.75;;;;;;;;;;5100261;27;20029;-72
2022/10/12 07:00:52;;;;;;;0.15;0.15;;;;;;;;;;5107392;27;20026;-74
2022/10/12 07:03:19;;;;;;;1.08;1.08;;;;;;;;;;5108671;27;20027;-74
2022/10/12 07:05:45;;;;;;;2.38;1.38;;;;;;;;;;5088602;28;20023;-78
2022/10/12 07:08:11;;;;;;;0.45;0.20;;;;;;;;;;5088345;28;20038;-77
2022/10/12 07:10:38;;;;;;;1.10;1.05;;;;;;;;;;5099616;28;20023;-77
2022/10/12 07:13:04;;;;;;;0.52;0.52;;;;;;;;;;5091472;28;20115;-75
2022/10/12 07:15:31;;;;;;;1.65;1.55;;;;;;;;;;5108867;28;20134;-76
2022/10/12 07:17:57;;;;;;;0.65;0.65;;;;;;;;;;5102320;27;20020;-76
2022/10/12 07:20:23;;;;;;;2.65;1.42;;;;;;;;;;5101191;28;21830;-76
2022/10/12 07:22:50;;;;;;;0.00;0.00;;;;;;;;;;5102865;28;20020;-74
2022/10/12 07:25:16;;;;;;;0.10;0.10;;;;;;;;;;5091789;28;20380;-73
2022/10/12 07:27:42;;;;;;;3.90;3.53;;;;;;;;;;5092466;28;20085;-75
2022/10/12 07:30:09;;;;;;;0.55;0.50;;;;;;;;;;5109510;28;20031;-76
2022/10/12 07:32:36;;;;;;;0.52;0.52;;;;;;;;;;5087415;28;20164;-74
2022/10/12 07:35:05;;;;;;;0.00;0.00;;;;;;;;;;5086168;28;20033;-77
2022/10/12 07:37:31;;;;;;;1.60;1.52;;;;;;;;;;5101466;28;20024;-78
2022/10/12 07:39:58;;;;;;;27.67;26.13;;;;;;;;;;5086684;28;20060;-77
2022/10/12 07:42:24;;;;;;;0.00;0.00;;;;;;;;;;5105666;27;20047;-76
2022/10/12 07:44:51;;;;;;;0.00;0.00;;;;;;;;;;5089904;28;20058;-75
2022/10/12 07:47:18;;;;;;;0.20;0.20;;;;;;;;;;5112913;27;20040;-76
2022/10/12 07:49:45;;;;;;;0.00;0.00;;;;;;;;;;5079484;28;20032;-76
2022/10/12 07:52:11;;;;;;;0.20;0.20;;;;;;;;;;5097625;27;20028;-76
2022/10/12 07:54:37;;;;;;;0.13;0.13;;;;;;;;;;5104869;27;20039;-79
2022/10/12 07:57:04;;;;;;;0.10;0.10;;;;;;;;;;5080583;28;20024;-77
2022/10/12 07:59:30;;;;;;;0.00;0.00;;;;;;;;;;5078765;27;20122;-77
2022/10/12 08:02:04;;;;;;;0.63;0.63;;;;;;;;;;5100329;27;20016;-77
2022/10/12 08:04:33;;;;;;;0.00;0.00;;;;;;;;;;5098867;27;20036;-77
2022/10/12 08:06:59;;;;;;;1.17;1.15;;;;;;;;;;5094434;28;20741;-76
2022/10/12 08:09:26;;;;;;;0.98;0.98;;;;;;;;;;5083018;27;20028;-75
2022/10/12 08:11:52;;;;;;;0.30;0.28;;;;;;;;;;5079198;28;20038;-77
2022/10/12 08:14:21;;;;;;;0.00;0.00;;;;;;;;;;5075174;28;20115;-77
2022/10/12 08:16:48;;;;;;;0.00;0.00;;;;;;;;;;5098726;27;20173;-77
2022/10/12 08:19:14;;;;;;;0.10;0.10;;;;;;;;;;5092347;27;20271;-77
2022/10/12 08:21:41;;;;;;;1.25;0.65;;;;;;;;;;5099571;28;20077;-77
2022/10/12 08:24:08;;;;;;;0.00;0.00;;;;;;;;;;5094867;28;20030;-74
2022/10/12 08:26:35;;;;;;;0.00;0.00;;;;;;;;;;5094049;28;20035;-75
2022/10/12 08:29:02;;;;;;;0.00;0.00;;;;;;;;;;5103517;27;20028;-75
2022/10/12 08:31:28;;;;;;;0.00;0.00;;;;;;;;;;5077855;28;20425;-74
2022/10/12 08:33:56;;;;;;;0.00;0.00;;;;;;;;;;5091743;28;20031;-75
2022/10/12 08:36:22;;;;;;;0.00;0.00;;;;;;;;;;5079363;28;20039;-74
2022/10/12 08:38:53;;;;;;;0.00;0.00;;;;;;;;;;5082142;28;20788;-74
2022/10/12 08:41:39;;;;;;;0.00;0.00;;;;;;;;;;5100760;27;20074;-76
2022/10/12 08:44:19;;;;;;;0.00;0.00;;;;;;;;;;5080066;27;20477;-76
2022/10/12 08:46:45;;;;;;;0.00;0.00;;;;;;;;;;5104371;27;20436;-74
2022/10/12 08:49:18;;;;;;;0.00;0.00;;;;;;;;;;5100390;28;20428;-76
2022/10/12 08:51:52;;;;;;;6.03;1.02;;;;;;;;;;5105534;27;20020;-75
2022/10/12 08:54:20;;;;;;;0.00;0.00;;;;;;;;;;5086163;27;20474;-75
2022/10/12 08:56:47;;;;;;;0.00;0.00;;;;;;;;;;5082737;28;20466;-75
2022/10/12 08:59:17;;;;;;;0.47;0.47;;;;;;;;;;5100772;27;21937;-76
2022/10/12 09:02:01;;;;;;;0.10;0.10;;;;;;;;;;5080807;28;20028;-75
2022/10/12 09:04:37;;;;;;;0.57;0.20;;;;;;;;;;5074875;28;20486;-73
2022/10/12 09:07:10;;;;;;;0.00;0.00;;;;;;;;;;5104578;27;20658;-75
2022/10/12 09:09:46;;;;;;;0.65;0.40;;;;;;;;;;5080790;27;20020;-74
2022/10/12 09:12:18;;;;;;;1.08;0.90;;;;;;;;;;5098518;28;20099;-75
2022/10/12 09:14:45;;;;;;;11.88;11.07;;;;;;;;;;5098735;28;20028;-75
2022/10/12 09:17:21;;;;;;;0.00;0.00;;;;;;;;;;5102020;28;20154;-75
2022/10/12 09:19:48;;;;;;;0.00;0.00;;;;;;;;;;5100156;28;20020;-75
2022/10/12 09:22:22;;;;;;;0.22;0.22;;;;;;;;;;5099167;28;20492;-74
2022/10/12 09:24:49;;;;;;;0.00;0.00;;;;;;;;;;5098755;28;20038;-75
2022/10/12 09:27:17;;;;;;;0.00;0.00;;;;;;;;;;5106153;28;20020;-77
2022/10/12 09:29:48;;;;;;;0.90;0.90;;;;;;;;;;5081469;28;20034;-77
2022/10/12 09:32:19;;;;;;;1.02;1.02;;;;;;;;;;5100898;28;20103;-77
2022/10/12 09:34:45;;;;;;;0.43;0.25;;;;;;;;;;5105516;28;20024;-76
2022/10/12 09:37:18;;;;;;;0.00;0.00;;;;;;;;;;5082514;28;20103;-77
2022/10/12 09:39:45;;;;;;;0.00;0.00;;;;;;;;;;5086954;28;20039;-76
2022/10/12 09:42:11;;;;;;;0.10;0.10;;;;;;;;;;5104938;28;20050;-77
2022/10/12 09:44:40;;;;;;;4.18;3.97;;;;;;;;;;5103764;28;20528;-77
2022/10/12 09:47:22;;;;;;;0.00;0.00;;;;;;;;;;5086594;28;20023;-77
2022/10/12 09:49:50;;;;;;;0.00;0.00;;;;;;;;;;5101345;28;20441;-78
2022/10/12 09:52:18;;;;;;;1.35;1.30;;;;;;;;;;5101832;28;20135;-77
2022/10/12 09:54:50;;;;;;;0.00;0.00;;;;;;;;;;5084694;28;20055;-76
2022/10/12 09:57:25;;;;;;;0.00;0.00;;;;;;;;;;5101698;28;20026;-73
2022/10/12 09:59:51;;;;;;;0.00;0.00;;;;;;;;;;5081307;28;20585;-73
2022/10/12 10:02:27;;;;;;;0.00;0.00;;;;;;;;;;5093356;28;20114;-74
2022/10/12 10:04:54;;;;;;;2.17;1.70;;;;;;;;;;5099343;28;20032;-75
2022/10/12 10:07:33;;;;;;;0.00;0.00;;;;;;;;;;5080521;28;20114;-75
2022/10/12 10:10:07;;;;;;;0.55;0.55;;;;;;;;;;5098557;28;20186;-75
2022/10/12 10:12:35;;;;;;;0.00;0.00;;;;;;;;;;5096850;28;20398;-73
2022/10/12 10:15:01;;;;;;;0.08;0.08;;;;;;;;;;5080818;28;20031;-72
2022/10/12 10:17:30;;;;;;;0.65;0.65;;;;;;;;;;5094687;28;20035;-74
2022/10/12 10:19:57;;;;;;;0.00;0.00;;;;;;;;;;5081438;28;20074;-73
2022/10/12 10:22:23;;;;;;;0.08;0.08;;;;;;;;;;5097932;28;20018;-76
2022/10/12 10:24:55;;;;;;;0.00;0.00;;;;;;;;;;5082096;28;20450;-76
2022/10/12 10:27:35;;;;;;;0.00;0.00;;;;;;;;;;5095680;28;20066;-75
2022/10/12 10:30:20;;;;;;;0.00;0.00;;;;;;;;;;5087255;27;20187;-74
2022/10/12 10:32:47;;;;;;;0.00;0.00;;;;;;;;;;5104797;27;20020;-80
2022/10/12 10:35:13;;;;;;;0.00;0.00;;;;;;;;;;5108850;27;20030;-75
2022/10/12 10:37:55;;;;;;;0.00;0.00;;;;;;;;;;5109519;28;20489;-74
2022/10/12 10:40:24;;;;;;;0.00;0.00;;;;;;;;;;5104583;27;20157;-76
2022/10/12 10:43:10;;;;;;;0.00;0.00;;;;;;;;;;5101652;28;20044;-80
2022/10/12 10:45:47;;;;;;;0.00;0.00;;;;;;;;;;5088724;27;20381;-80
2022/10/12 10:48:16;;;;;;;0.00;0.00;;;;;;;;;;5087551;28;20508;-76
2022/10/12 10:50:49;;;;;;;0.00;0.00;;;;;;;;;;5077867;28;20501;-84
2022/10/12 10:53:20;;;;;;;0.57;0.55;;;;;;;;;;5091629;28;20055;-83
2022/10/12 10:55:49;;;;;;;0.00;0.00;;;;;;;;;;5100590;28;20477;-82
2022/10/12 10:58:20;;;;;;;0.00;0.00;;;;;;;;;;5100518;28;20023;-77
2022/10/12 11:00:48;;;;;;;0.00;0.00;;;;;;;;;;5107906;27;20050;-81
2022/10/12 11:03:20;;;;;;;1.10;1.02;;;;;;;;;;5112074;27;20358;-80
2022/10/12 11:05:49;;;;;;;0.00;0.00;;;;;;;;;;5105653;27;20731;-81
2022/10/12 11:08:26;;;;;;;0.00;0.00;;;;;;;;;;5105382;27;20093;-82
2022/10/12 11:10:55;;;;;;;0.00;0.00;;;;;;;;;;5103200;27;20023;-80
2022/10/12 11:13:24;;;;;;;0.00;0.00;;;;;;;;;;5085233;27;20113;-80
2022/10/12 11:15:56;;;;;;;0.00;0.00;;;;;;;;;;5101683;27;20092;-80
2022/10/12 11:18:30;;;;;;;0.00;0.00;;;;;;;;;;5101107;28;20483;-80
2022/10/12 11:21:23;;;;;;;0.00;0.00;;;;;;;;;;5106926;27;20502;-78
2022/10/12 11:24:01;;;;;;;0.90;0.90;;;;;;;;;;5099188;27;20098;-78
2022/10/12 11:26:46;;;;;;;0.35;0.35;;;;;;;;;;5089913;28;20031;-78
2022/10/12 11:29:13;;;;;;;0.10;0.10;;;;;;;;;;5092470;27;20035;-79
2022/10/12 11:31:43;;;;;;;0.15;0.15;;;;;;;;;;5088175;27;20032;-78
2022/10/12 11:34:18;;;;;;;0.00;0.00;;;;;;;;;;5106610;28;20024;-78
2022/10/12 11:36:46;;;;;;;0.00;0.00;;;;;;;;;;5102883;28;20019;-79
2022/10/12 11:39:21;;;;;;;0.00;0.00;;;;;;;;;;5105346;28;20043;-78
2022/10/12 11:41:49;;;;;;;0.00;0.00;;;;;;;;;;5075584;28;20032;-79
2022/10/12 11:44:22;;;;;;;0.00;0.00;;;;;;;;;;5096919;27;20379;-76
2022/10/12 11:47:00;;;;;;;0.00;0.00;;;;;;;;;;5107035;27;20051;-80
2022/10/12 11:49:29;;;;;;;0.00;0.00;;;;;;;;;;5102116;27;20024;-75
2022/10/12 11:51:57;;;;;;;0.00;0.00;;;;;;;;;;5101450;28;20414;-74
2022/10/12 11:54:46;;;;;;;0.00;0.00;;;;;;;;;;5100374;28;20444;-72
2022/10/12 11:57:20;;;;;;;0.00;0.00;;;;;;;;;;5102287;27;20023;-73
2022/10/12 12:00:00;;;;;;;0.00;0.00;;;;;;;;;;5078227;28;20023;-72
2022/10/12 12:02:50;;;;;;;0.00;0.00;;;;;;;;;;5099796;27;20099;-73
2022/10/12 12:05:16;;;;;;;0.00;0.00;;;;;;;;;;5093841;28;20036;-71
2022/10/12 12:07:47;;;;;;;0.00;0.00;;;;;;;;;;5113751;27;20023;-71
2022/10/12 12:10:35;;;;;;;0.00;0.00;;;;;;;;;;5099772;28;20024;-72
2022/10/12 12:13:14;;;;;;;0.00;0.00;;;;;;;;;;5103608;28;20020;-73
2022/10/12 12:15:43;;;;;;;0.00;0.00;;;;;;;;;;5083899;28;20047;-71
2022/10/12 12:18:12;;;;;;;0.00;0.00;;;;;;;;;;5102645;27;20012;-71
2022/10/12 12:20:45;;;;;;;0.00;0.00;;;;;;;;;;5110709;28;20087;-72
2022/10/12 12:23:17;;;;;;;0.00;0.00;;;;;;;;;;5097856;28;20106;-73
2022/10/12 12:25:44;;;;;;;0.00;0.00;;;;;;;;;;5123022;28;20035;-71
2022/10/12 12:28:24;;;;;;;0.00;0.00;;;;;;;;;;5124855;28;20036;-72
2022/10/12 12:30:59;;;;;;;0.00;0.00;;;;;;;;;;5092694;28;20123;-72
2022/10/12 12:33:34;;;;;;;0.00;0.00;;;;;;;;;;5102153;28;20057;-73
2022/10/12 12:36:07;;;;;;;0.00;0.00;;;;;;;;;;5107583;28;20506;-72
2022/10/12 12:38:38;;;;;;;0.00;0.00;;;;;;;;;;5089293;28;20486;-73
2022/10/12 12:41:18;;;;;;;0.00;0.00;;;;;;;;;;5102797;27;20386;-73
2022/10/12 12:43:44;;;;;;;0.00;0.00;;;;;;;;;;5102135;28;20015;-72
2022/10/12 12:46:12;;;;;;;0.00;0.00;;;;;;;;;;5097609;28;20037;-72
2022/10/12 12:48:38;;;;;;;0.00;0.00;;;;;;;;;;5095517;27;20039;-74
2022/10/12 12:51:08;;;;;;;0.00;0.00;;;;;;;;;;5104922;27;20363;-72
2022/10/12 12:54:00;;;;;;;0.65;0.65;;;;;;;;;;5110030;28;20491;-73
2022/10/12 12:56:34;;;;;;;0.00;0.00;;;;;;;;;;5069040;28;20402;-71
2022/10/12 12:59:13;;;;;;;0.00;0.00;;;;;;;;;;5096630;28;20058;-73
2022/10/12 13:01:46;;;;;;;0.00;0.00;;;;;;;;;;5085147;28;20028;-71
2022/10/12 13:04:12;;;;;;;0.00;0.00;;;;;;;;;;5106602;27;20424;-71
2022/10/12 13:06:41;;;;;;;0.00;0.00;;;;;;;;;;5100729;28;20027;-72
2022/10/12 13:09:23;;;;;;;0.00;0.00;;;;;;;;;;5099297;27;20382;-73
2022/10/12 13:11:56;;;;;;;0.00;0.00;;;;;;;;;;5107451;28;20031;-73
2022/10/12 13:14:40;;;;;;;0.00;0.00;;;;;;;;;;5094585;28;20026;-73
2022/10/12 13:17:10;;;;;;;0.00;0.00;;;;;;;;;;5079291;28;20382;-73
2022/10/12 13:19:37;;;;;;;0.00;0.00;;;;;;;;;;5111338;28;20046;-71
2022/10/12 13:22:13;;;;;;;0.00;0.00;;;;;;;;;;5110062;28;20424;-72
2022/10/12 13:24:49;;;;;;;0.00;0.00;;;;;;;;;;5107039;28;20028;-74
2022/10/12 13:27:21;;;;;;;0.00;0.00;;;;;;;;;;5089562;28;20024;-72
2022/10/12 13:30:04;;;;;;;0.00;0.00;;;;;;;;;;5095396;28;20027;-73
2022/10/12 13:32:30;;;;;;;0.00;0.00;;;;;;;;;;5099652;28;20035;-72
2022/10/12 13:35:01;;;;;;;0.00;0.00;;;;;;;;;;5110599;28;20023;-72
2022/10/12 13:37:31;;;;;;;0.38;0.38;;;;;;;;;;5091998;28;20029;-72
2022/10/12 13:39:58;;;;;;;0.00;0.00;;;;;;;;;;5108124;28;20024;-72
2022/10/12 13:42:26;;;;;;;0.00;0.00;;;;;;;;;;5108471;28;20103;-72
2022/10/12 13:44:53;;;;;;;0.43;0.43;;;;;;;;;;5105468;28;20019;-72
2022/10/12 13:47:30;;;;;;;0.00;0.00;;;;;;;;;;5102570;28;20650;-73
2022/10/12 13:49:56;;;;;;;0.00;0.00;;;;;;;;;;5101155;28;20097;-73
2022/10/12 13:52:30;;;;;;;0.00;0.00;;;;;;;;;;5099969;28;20474;-73
2022/10/12 13:54:57;;;;;;;0.00;0.00;;;;;;;;;;5093490;28;20031;-73
2022/10/12 13:57:30;;;;;;;0.00;0.00;;;;;;;;;;5086954;28;20027;-72
2022/10/12 14:00:15;;;;;;;0.00;0.00;;;;;;;;;;5075764;28;20474;-73
2022/10/12 14:02:42;;;;;;;0.00;0.00;;;;;;;;;;5095348;28;20099;-73
2022/10/12 14:05:19;;;;;;;0.10;0.10;;;;;;;;;;5083095;28;20046;-72
2022/10/12 14:07:46;;;;;;;0.00;0.00;;;;;;;;;;5110506;28;20130;-72
2022/10/12 14:10:16;;;;;;;0.63;0.63;;;;;;;;;;5114105;28;20024;-72
2022/10/12 14:12:44;;;;;;;0.00;0.00;;;;;;;;;;5112289;28;20492;-72
2022/10/12 14:15:12;;;;;;;0.00;0.00;;;;;;;;;;5114511;28;21239;-72
2022/10/12 14:17:45;;;;;;;0.20;0.20;;;;;;;;;;5094725;28;20152;-72
2022/10/12 14:20:17;;;;;;;0.00;0.00;;;;;;;;;;5088981;28;20047;-72
2022/10/12 14:22:48;;;;;;;0.00;0.00;;;;;;;;;;5087811;28;20027;-73
2022/10/12 14:25:17;;;;;;;0.65;0.65;;;;;;;;;;5115741;28;20028;-77
2022/10/12 14:27:43;;;;;;;0.00;0.00;;;;;;;;;;5114281;28;20073;-77
2022/10/12 14:30:21;;;;;;;0.10;0.10;;;;;;;;;;5112662;28;20500;-77
2022/10/12 14:32:48;;;;;;;0.00;0.00;;;;;;;;;;5104721;28;20054;-77
2022/10/12 14:35:14;;;;;;;0.00;0.00;;;;;;;;;;5131823;27;20114;-76
2022/10/12 14:37:41;;;;;;;0.00;0.00;;;;;;;;;;5096940;28;20078;-77
2022/10/12 14:40:22;;;;;;;0.30;0.30;;;;;;;;;;5078124;28;20024;-76
2022/10/12 14:43:02;;;;;;;0.00;0.00;;;;;;;;;;5095849;28;20066;-76
2022/10/12 14:45:29;;;;;;;0.00;0.00;;;;;;;;;;5109748;27;20027;-76
2022/10/12 14:47:56;;;;;;;0.00;0.00;;;;;;;;;;5096462;28;20020;-76
2022/10/12 14:50:22;;;;;;;0.00;0.00;;;;;;;;;;5077817;28;20028;-76
2022/10/12 14:52:51;;;;;;;0.00;0.00;;;;;;;;;;5096122;28;20390;-76
2022/10/12 14:55:19;;;;;;;0.10;0.10;;;;;;;;;;5107561;27;20057;-76
2022/10/12 14:57:46;;;;;;;0.00;0.00;;;;;;;;;;5112614;27;20024;-76
2022/10/12 15:00:16;;;;;;;1.13;1.13;;;;;;;;;;5095510;28;20055;-75